Time;durP1;ratioP1;P1;durP2;ratioP2;P2;SDS_P1;SDS_P2;PMS_P1;PMS_P2;Temp;Humidity;BMP_temperature;BMP_pressure;BME280_temperature;BME280_humidity;BME280_pressure;Samples;Min_cycle;Max_cycle;Signal;HPM_P1;HPM_P2
2022/02/06 00:01:58;;;;;;;7.07;2.40;;;;;;;;;;5024302;28;20053;-78
2022/02/06 00:04:25;;;;;;;7.00;2.83;;;;;;;;;;5015764;28;20046;-78
2022/02/06 00:06:53;;;;;;;7.32;2.47;;;;;;;;;;5017051;28;20057;-78
2022/02/06 00:09:21;;;;;;;5.50;2.08;;;;;;;;;;5017634;28;20054;-78
2022/02/06 00:11:48;;;;;;;6.78;2.30;;;;;;;;;;5016095;28;20229;-78
2022/02/06 00:14:15;;;;;;;5.18;2.35;;;;;;;;;;5015905;28;20046;-79
2022/02/06 00:16:42;;;;;;;5.65;2.30;;;;;;;;;;5015515;28;20052;-78
2022/02/06 00:19:09;;;;;;;6.63;2.75;;;;;;;;;;5015554;28;20045;-78
2022/02/06 00:21:36;;;;;;;9.73;4.15;;;;;;;;;;5014088;28;20065;-78
2022/02/06 00:24:05;;;;;;;7.47;2.55;;;;;;;;;;5018383;28;20058;-78
2022/02/06 00:26:38;;;;;;;4.65;2.10;;;;;;;;;;5025063;23;20053;31
2022/02/06 00:29:18;;;;;;;8.77;2.50;;;;;;;;;;5079942;28;20144;-79
2022/02/06 00:31:56;;;;;;;7.10;2.88;;;;;;;;;;5078206;28;20040;-80
2022/02/06 00:39:50;;;;;;;4.88;2.30;;;;;;;;;;5077039;28;20133;-77
2022/02/06 00:42:17;;;;;;;5.05;2.50;;;;;;;;;;5076179;28;20398;-78
2022/02/06 00:44:45;;;;;;;5.88;2.58;;;;;;;;;;5076036;28;20507;-78
2022/02/06 00:47:12;;;;;;;7.47;2.50;;;;;;;;;;5075297;28;20044;-77
2022/02/06 00:49:40;;;;;;;5.57;2.40;;;;;;;;;;5075812;28;20040;-79
2022/02/06 00:52:11;;;;;;;7.18;2.40;;;;;;;;;;5076062;28;20053;-78
2022/02/06 00:54:38;;;;;;;5.55;2.42;;;;;;;;;;5075590;28;20098;-78
2022/02/06 00:57:06;;;;;;;5.25;2.40;;;;;;;;;;5074746;28;20048;-78
2022/02/06 00:59:33;;;;;;;5.63;1.90;;;;;;;;;;5080843;28;20044;-76
2022/02/06 01:02:01;;;;;;;6.82;2.42;;;;;;;;;;5075802;28;20110;-77
2022/02/06 01:04:33;;;;;;;8.85;2.17;;;;;;;;;;5075161;28;20056;-78
2022/02/06 01:07:00;;;;;;;5.65;2.40;;;;;;;;;;5074958;28;20056;-76
2022/02/06 01:09:27;;;;;;;7.72;2.20;;;;;;;;;;5079269;28;20810;-78
2022/02/06 01:11:55;;;;;;;6.05;2.58;;;;;;;;;;5077561;28;20048;-79
2022/02/06 01:14:32;;;;;;;4.80;2.15;;;;;;;;;;5077375;28;20123;-78
2022/02/06 01:17:07;;;;;;;5.60;2.03;;;;;;;;;;5077578;28;20056;-78
2022/02/06 01:19:44;;;;;;;6.68;2.13;;;;;;;;;;5077659;28;20044;-78
2022/02/06 01:22:13;;;;;;;6.93;2.20;;;;;;;;;;5078065;28;20390;-78
2022/02/06 01:24:45;;;;;;;8.23;3.13;;;;;;;;;;5079333;28;20076;-79
2022/02/06 01:27:15;;;;;;;6.55;2.60;;;;;;;;;;5078515;28;20106;-79
2022/02/06 01:29:50;;;;;;;7.35;2.42;;;;;;;;;;5079284;28;20064;-79
2022/02/06 01:32:21;;;;;;;9.48;2.95;;;;;;;;;;5079283;28;20055;-80
2022/02/06 01:34:53;;;;;;;7.40;2.38;;;;;;;;;;5079227;28;20048;-79
2022/02/06 01:37:26;;;;;;;7.22;2.20;;;;;;;;;;5079451;28;20068;-73
2022/02/06 01:40:09;;;;;;;8.73;2.20;;;;;;;;;;5091678;28;20098;-79
2022/02/06 01:42:41;;;;;;;6.82;2.20;;;;;;;;;;5083088;28;20098;-79
2022/02/06 02:02:14;;;;;;;7.22;2.42;;;;;;;;;;5084818;28;20266;-78
2022/02/06 02:04:52;;;;;;;5.60;1.98;;;;;;;;;;5080206;28;20059;-79
2022/02/06 02:07:39;;;;;;;5.07;2.03;;;;;;;;;;5076373;28;20123;-79
2022/02/06 02:10:37;;;;;;;7.28;3.10;;;;;;;;;;5078803;28;20209;-79
2022/02/06 02:32:31;;;;;;;8.18;2.28;;;;;;;;;;5076862;28;20052;-78
2022/02/06 02:46:11;;;;;;;9.43;3.05;;;;;;;;;;5059274;28;20179;-78
2022/02/06 02:48:40;;;;;;;6.60;1.88;;;;;;;;;;5074897;28;20080;-78
2022/02/06 02:51:09;;;;;;;6.78;2.20;;;;;;;;;;5074469;28;20048;-77
2022/02/06 02:53:41;;;;;;;11.10;2.33;;;;;;;;;;5074790;28;20075;-78
2022/02/06 02:56:23;;;;;;;4.93;2.20;;;;;;;;;;5090907;28;20033;-77
2022/02/06 02:59:00;;;;;;;8.40;2.10;;;;;;;;;;5097787;28;20104;-77
2022/02/06 03:01:32;;;;;;;7.82;2.80;;;;;;;;;;5097897;28;20096;-77
2022/02/06 03:03:59;;;;;;;9.38;2.20;;;;;;;;;;5097632;28;20074;-77
2022/02/06 03:06:26;;;;;;;6.93;2.30;;;;;;;;;;5087799;28;20101;-80
2022/02/06 03:08:56;;;;;;;7.18;2.22;;;;;;;;;;5077014;28;20056;-79
2022/02/06 03:11:23;;;;;;;5.75;2.28;;;;;;;;;;5074673;28;20060;-80
2022/02/06 03:13:58;;;;;;;8.65;2.80;;;;;;;;;;5074568;28;20040;-78
2022/02/06 03:16:27;;;;;;;6.45;2.67;;;;;;;;;;5073560;28;20422;-79
2022/02/06 03:19:03;;;;;;;8.13;2.55;;;;;;;;;;5074218;28;20106;-79
2022/02/06 03:21:32;;;;;;;6.93;2.83;;;;;;;;;;5074109;28;20052;-79
2022/02/06 03:24:10;;;;;;;6.28;2.30;;;;;;;;;;5075559;28;20070;-78
2022/02/06 03:26:37;;;;;;;7.15;2.33;;;;;;;;;;5092086;28;20028;-78
2022/02/06 03:29:04;;;;;;;6.32;1.80;;;;;;;;;;5094272;28;20040;-77
2022/02/06 03:31:31;;;;;;;6.70;2.28;;;;;;;;;;5091041;28;20590;-78
2022/02/06 03:33:57;;;;;;;6.47;1.90;;;;;;;;;;5081838;28;20496;-79
2022/02/06 03:36:24;;;;;;;8.48;2.17;;;;;;;;;;5075868;28;20470;-78
2022/02/06 03:38:53;;;;;;;10.43;2.35;;;;;;;;;;5075540;28;20048;-78
2022/02/06 03:41:22;;;;;;;5.55;2.13;;;;;;;;;;5078402;28;20135;-79
2022/02/06 03:43:55;;;;;;;6.30;1.80;;;;;;;;;;5074784;28;20060;-79
2022/02/06 03:46:28;;;;;;;7.38;2.50;;;;;;;;;;5075525;28;20052;-79
2022/02/06 03:49:02;;;;;;;6.32;2.45;;;;;;;;;;5075274;28;20048;-79
2022/02/06 03:51:32;;;;;;;6.38;2.30;;;;;;;;;;5074535;28;20053;-79
2022/02/06 03:54:00;;;;;;;6.80;1.83;;;;;;;;;;5074093;28;20087;-79
2022/02/06 03:56:31;;;;;;;11.23;2.42;;;;;;;;;;5074598;28;20135;-79
2022/02/06 03:59:00;;;;;;;8.40;2.10;;;;;;;;;;5079077;28;20056;-79
2022/02/06 04:01:27;;;;;;;7.15;2.78;;;;;;;;;;5081558;28;20064;-78
2022/02/06 04:03:54;;;;;;;5.35;1.58;;;;;;;;;;5079213;28;20499;-79
2022/02/06 04:06:21;;;;;;;8.82;2.03;;;;;;;;;;5081219;28;20048;-78
2022/02/06 04:08:49;;;;;;;7.10;1.90;;;;;;;;;;5081812;28;20422;-79
2022/02/06 04:11:20;;;;;;;9.32;2.33;;;;;;;;;;5087250;28;20051;-78
2022/02/06 04:14:04;;;;;;;5.05;1.88;;;;;;;;;;5088769;28;20495;-79
2022/02/06 04:16:39;;;;;;;6.82;2.03;;;;;;;;;;5087360;28;20059;-77
2022/02/06 04:19:17;;;;;;;4.95;2.08;;;;;;;;;;5079454;28;20147;-80
2022/02/06 04:21:44;;;;;;;9.40;2.40;;;;;;;;;;5078404;28;20467;-78
2022/02/06 04:24:11;;;;;;;12.57;2.60;;;;;;;;;;5078661;28;20080;-78
2022/02/06 04:26:38;;;;;;;4.32;1.95;;;;;;;;;;5078351;28;20105;-78
2022/02/06 04:29:07;;;;;;;4.93;2.13;;;;;;;;;;5078039;28;20052;-78
2022/02/06 04:31:37;;;;;;;5.43;2.08;;;;;;;;;;5078148;28;20070;-78
2022/02/06 04:34:03;;;;;;;10.47;3.77;;;;;;;;;;5078360;28;20107;-78
2022/02/06 04:36:37;;;;;;;9.52;2.20;;;;;;;;;;5077939;28;20045;-78
2022/02/06 04:39:13;;;;;;;5.68;2.03;;;;;;;;;;5077510;28;20526;-78
2022/02/06 04:41:57;;;;;;;6.38;2.13;;;;;;;;;;5078193;28;20044;-78
2022/02/06 04:55:58;;;;;;;9.57;1.88;;;;;;;;;;5033569;28;20498;-78
2022/02/06 05:15:09;;;;;;;5.45;2.10;;;;;;;;;;5076296;28;20132;-77
2022/02/06 05:23:39;;;;;;;6.60;1.55;;;;;;;;;;4992801;28;20049;-78
2022/02/06 05:28:55;;;;;;;6.97;1.88;;;;;;;;;;5074379;28;20063;-76
2022/02/06 05:31:33;;;;;;;7.47;2.13;;;;;;;;;;5074931;28;20084;-77
2022/02/06 05:34:01;;;;;;;5.45;1.65;;;;;;;;;;5074466;28;20499;-78
2022/02/06 05:36:28;;;;;;;6.15;1.58;;;;;;;;;;5074148;28;20048;-77
2022/02/06 05:38:55;;;;;;;5.07;1.75;;;;;;;;;;5075044;28;20048;-79
2022/02/06 05:41:21;;;;;;;11.63;2.00;;;;;;;;;;5075318;28;20048;-77
2022/02/06 05:43:50;;;;;;;8.13;1.60;;;;;;;;;;5075138;28;20051;-77
2022/02/06 05:46:16;;;;;;;7.97;1.83;;;;;;;;;;5075469;28;20052;-77
2022/02/06 05:48:43;;;;;;;6.13;1.30;;;;;;;;;;5076863;28;20063;-78
2022/02/06 05:51:14;;;;;;;6.82;1.88;;;;;;;;;;5076347;28;20052;-79
2022/02/06 05:53:42;;;;;;;7.53;1.70;;;;;;;;;;5076399;28;20045;-79
2022/02/06 05:56:09;;;;;;;8.10;1.75;;;;;;;;;;5075301;28;20110;-79
2022/02/06 05:58:35;;;;;;;6.00;1.70;;;;;;;;;;5075614;28;20055;-79
2022/02/06 06:01:02;;;;;;;4.38;1.58;;;;;;;;;;5092440;28;20029;-77
2022/02/06 06:03:29;;;;;;;5.07;2.00;;;;;;;;;;5098549;28;20033;-75
2022/02/06 06:05:56;;;;;;;8.07;3.35;;;;;;;;;;5098708;28;20092;-76
2022/02/06 06:08:24;;;;;;;3.22;1.27;;;;;;;;;;5089096;28;20048;-79
2022/02/06 06:10:51;;;;;;;5.80;1.85;;;;;;;;;;5077327;28;20048;-79
2022/02/06 06:13:18;;;;;;;3.78;1.35;;;;;;;;;;5077273;28;20094;-78
2022/02/06 06:15:45;;;;;;;7.40;1.95;;;;;;;;;;5076722;28;20063;-79
2022/02/06 06:18:13;;;;;;;6.80;1.67;;;;;;;;;;5075196;28;20051;-79
2022/02/06 06:20:43;;;;;;;7.55;1.83;;;;;;;;;;5074531;28;20041;-79
2022/02/06 06:23:10;;;;;;;6.00;1.50;;;;;;;;;;5075656;28;20440;-78
2022/02/06 06:25:40;;;;;;;5.22;1.45;;;;;;;;;;5087737;28;20135;-77
2022/02/06 06:28:08;;;;;;;5.10;2.40;;;;;;;;;;5101489;22;20041;-79
2022/02/06 06:30:36;;;;;;;5.82;1.60;;;;;;;;;;5036741;28;20415;-79
2022/02/06 06:33:03;;;;;;;5.07;1.50;;;;;;;;;;5037589;28;20053;-79
2022/02/06 06:35:31;;;;;;;8.27;2.58;;;;;;;;;;5037336;28;20049;-78
2022/02/06 06:37:59;;;;;;;8.20;2.10;;;;;;;;;;5035026;28;20136;-78
2022/02/06 06:40:26;;;;;;;7.43;2.13;;;;;;;;;;5036315;28;20133;-78
2022/02/06 06:42:55;;;;;;;6.68;2.05;;;;;;;;;;5035284;28;20107;-78
2022/02/06 06:45:23;;;;;;;6.32;1.40;;;;;;;;;;5035366;28;20049;-79
2022/02/06 06:47:53;;;;;;;6.00;1.92;;;;;;;;;;5036865;28;20099;-79
2022/02/06 06:50:20;;;;;;;6.50;1.80;;;;;;;;;;5036097;28;20081;-78
2022/02/06 06:52:48;;;;;;;4.13;1.52;;;;;;;;;;5036654;28;20524;-78
2022/02/06 06:55:19;;;;;;;5.32;1.70;;;;;;;;;;5038434;28;20045;-79
2022/02/06 06:57:53;;;;;;;;;;;;;;;;;;5043295;28;20056;-79
2022/02/06 07:00:24;;;;;;;4.32;1.30;;;;;;;;;;5039938;28;19921;-79
2022/02/06 07:02:52;;;;;;;6.93;1.42;;;;;;;;;;5039027;28;20053;-80
2022/02/06 07:05:19;;;;;;;4.60;1.42;;;;;;;;;;5038193;28;20057;-79
2022/02/06 07:07:48;;;;;;;4.50;1.48;;;;;;;;;;5038775;28;20111;-78
2022/02/06 07:10:15;;;;;;;7.18;1.40;;;;;;;;;;5038933;28;20099;-78
2022/02/06 07:12:43;;;;;;;5.07;1.70;;;;;;;;;;5050681;28;20076;-77
2022/02/06 07:15:10;;;;;;;6.72;2.50;;;;;;;;;;5054563;28;20038;-79
2022/02/06 07:17:38;;;;;;;4.13;1.88;;;;;;;;;;5053100;28;20083;-78
2022/02/06 07:20:06;;;;;;;12.13;1.95;;;;;;;;;;5048789;28;20053;-79
2022/02/06 07:22:36;;;;;;;4.47;1.83;;;;;;;;;;5042853;28;20128;-79
2022/02/06 07:25:05;;;;;;;8.32;1.80;;;;;;;;;;5040809;28;20125;-79
2022/02/06 07:27:34;;;;;;;7.03;1.67;;;;;;;;;;5037326;28;20052;-79
2022/02/06 07:30:05;;;;;;;4.45;1.25;;;;;;;;;;5036228;28;20052;-78
2022/02/06 07:32:33;;;;;;;5.28;1.50;;;;;;;;;;5038174;28;20136;-79
2022/02/06 07:35:02;;;;;;;5.05;1.92;;;;;;;;;;5039980;28;20057;-79
2022/02/06 07:37:30;;;;;;;6.68;1.85;;;;;;;;;;5038879;28;20049;-77
2022/02/06 07:39:57;;;;;;;4.45;1.63;;;;;;;;;;5040347;28;20053;-80
2022/02/06 07:42:25;;;;;;;5.07;1.60;;;;;;;;;;5040796;28;20049;-79
2022/02/06 07:44:52;;;;;;;6.88;1.60;;;;;;;;;;5041541;28;20096;-80
2022/02/06 07:47:21;;;;;;;3.33;1.38;;;;;;;;;;5040572;28;20148;-79
2022/02/06 07:49:50;;;;;;;6.75;1.70;;;;;;;;;;5040225;28;20089;-79
2022/02/06 07:52:20;;;;;;;8.68;1.80;;;;;;;;;;5040587;28;20042;-79
2022/02/06 07:54:50;;;;;;;4.55;1.70;;;;;;;;;;5041541;28;20124;-80
2022/02/06 07:57:17;;;;;;;4.65;1.63;;;;;;;;;;5041589;28;20052;-77
2022/02/06 07:59:44;;;;;;;7.28;1.77;;;;;;;;;;5055013;28;20052;-79
2022/02/06 08:02:12;;;;;;;7.20;1.60;;;;;;;;;;5050779;28;20534;-79
2022/02/06 08:04:39;;;;;;;8.77;2.05;;;;;;;;;;5044132;28;20060;-80
2022/02/06 08:07:08;;;;;;;7.95;2.10;;;;;;;;;;5042124;28;20046;-80
2022/02/06 08:09:51;;;;;;;9.57;2.85;;;;;;;;;;5041027;28;20052;-79
2022/02/06 08:12:25;;;;;;;10.55;1.75;;;;;;;;;;5039947;28;20054;-79
2022/02/06 08:14:55;;;;;;;5.53;1.80;;;;;;;;;;5041509;28;20397;-78
2022/02/06 08:17:24;;;;;;;5.85;1.48;;;;;;;;;;5041634;28;20052;-77
2022/02/06 08:19:52;;;;;;;5.53;1.90;;;;;;;;;;5047377;28;20580;-77
2022/02/06 08:22:19;;;;;;;7.40;1.90;;;;;;;;;;5043141;28;20057;-79
2022/02/06 08:24:50;;;;;;;5.30;1.67;;;;;;;;;;5043590;28;20420;-78
2022/02/06 08:27:17;;;;;;;10.00;1.85;;;;;;;;;;5045259;28;20048;-79
2022/02/06 08:29:46;;;;;;;7.18;2.00;;;;;;;;;;5043027;28;20046;-78
2022/02/06 08:32:14;;;;;;;5.95;1.70;;;;;;;;;;5041343;28;20060;-80
2022/02/06 08:34:41;;;;;;;7.47;1.80;;;;;;;;;;5041989;28;20065;-81
2022/02/06 08:37:08;;;;;;;5.00;1.80;;;;;;;;;;5040940;28;20041;-79
2022/02/06 08:39:37;;;;;;;5.68;1.55;;;;;;;;;;5040726;28;20052;-79
2022/02/06 08:42:09;;;;;;;6.03;1.80;;;;;;;;;;5040994;28;20046;-80
2022/02/06 08:44:41;;;;;;;7.07;1.52;;;;;;;;;;5041732;28;20068;-81
2022/02/06 08:47:10;;;;;;;2.35;1.20;;;;;;;;;;5043295;28;20049;-80
2022/02/06 08:49:39;;;;;;;6.05;1.70;;;;;;;;;;5039460;28;20057;-80
2022/02/06 08:52:07;;;;;;;12.75;2.00;;;;;;;;;;5039847;28;20053;-78
2022/02/06 08:54:36;;;;;;;7.47;1.90;;;;;;;;;;5039931;28;20563;-80
2022/02/06 08:57:16;;;;;;;5.93;1.73;;;;;;;;;;5040531;28;20484;-78
2022/02/06 08:59:47;;;;;;;9.48;1.77;;;;;;;;;;5044065;28;20050;-78
2022/02/06 09:02:14;;;;;;;5.80;2.17;;;;;;;;;;5044587;28;20549;-80
2022/02/06 09:04:41;;;;;;;7.60;2.20;;;;;;;;;;5040303;28;20054;-80
2022/02/06 09:07:09;;;;;;;7.85;1.70;;;;;;;;;;5040264;28;20068;-78
2022/02/06 09:09:41;;;;;;;5.28;1.65;;;;;;;;;;5040349;28;20050;-80
2022/02/06 09:12:11;;;;;;;6.22;1.67;;;;;;;;;;5040013;28;20080;-80
2022/02/06 09:14:39;;;;;;;7.28;1.90;;;;;;;;;;5041646;28;20054;-80
2022/02/06 09:17:09;;;;;;;5.78;1.70;;;;;;;;;;5044271;28;20050;-80
2022/02/06 09:19:37;;;;;;;6.53;1.45;;;;;;;;;;5045431;28;20053;-79
2022/02/06 09:22:04;;;;;;;7.10;1.77;;;;;;;;;;5052107;28;20068;-79
2022/02/06 09:24:35;;;;;;;7.18;1.48;;;;;;;;;;5051011;28;20057;-79
2022/02/06 09:27:02;;;;;;;6.07;1.60;;;;;;;;;;5049423;28;20149;-81
2022/02/06 09:29:31;;;;;;;6.20;1.45;;;;;;;;;;5051407;28;20084;-80
2022/02/06 09:36:51;;;;;;;8.02;1.52;;;;;;;;;;5046051;28;20136;-80
2022/02/06 09:39:17;;;;;;;6.28;1.35;;;;;;;;;;5045328;28;20045;-79
2022/02/06 09:41:46;;;;;;;4.75;1.15;;;;;;;;;;5041994;28;20072;-78
2022/02/06 09:44:15;;;;;;;3.42;1.60;;;;;;;;;;5037857;28;20520;-78
2022/02/06 09:46:49;;;;;;;3.50;1.40;;;;;;;;;;5037905;28;20096;-78
2022/02/06 09:49:16;;;;;;;6.65;1.55;;;;;;;;;;5038587;28;20103;-80
2022/02/06 09:51:44;;;;;;;6.05;2.17;;;;;;;;;;5039781;28;20049;-80
2022/02/06 09:54:14;;;;;;;2.88;1.60;;;;;;;;;;5040446;28;20053;-79
2022/02/06 09:56:46;;;;;;;9.93;2.78;;;;;;;;;;5037735;28;20056;-79
2022/02/06 09:59:20;;;;;;;6.80;1.40;;;;;;;;;;5041957;28;20045;-80
2022/02/06 10:01:53;;;;;;;3.72;1.30;;;;;;;;;;5040382;28;20045;-79
2022/02/06 10:04:22;;;;;;;5.13;1.83;;;;;;;;;;5040756;28;20630;-80
2022/02/06 10:07:04;;;;;;;5.38;1.48;;;;;;;;;;5037637;28;20053;-79
2022/02/06 10:09:38;;;;;;;8.85;2.45;;;;;;;;;;5038049;28;20105;-78
2022/02/06 10:12:07;;;;;;;6.18;1.70;;;;;;;;;;5036051;28;20057;-78
2022/02/06 10:14:34;;;;;;;7.45;1.80;;;;;;;;;;5038054;28;20509;-79
2022/02/06 10:17:02;;;;;;;5.55;1.50;;;;;;;;;;5038005;28;20111;-80
2022/02/06 10:19:30;;;;;;;5.43;1.38;;;;;;;;;;5038154;28;20060;-78
2022/02/06 10:21:57;;;;;;;3.50;1.23;;;;;;;;;;5035667;28;20057;-78
2022/02/06 10:24:28;;;;;;;8.13;1.80;;;;;;;;;;5035451;28;20049;-78
2022/02/06 10:27:19;;;;;;;5.32;1.50;;;;;;;;;;5035926;28;20476;-78
2022/02/06 10:29:56;;;;;;;11.40;1.75;;;;;;;;;;5034517;28;20061;-77
2022/02/06 10:32:27;;;;;;;5.45;1.73;;;;;;;;;;5036397;28;20492;-78
2022/02/06 10:35:08;;;;;;;;;;;;;;;;;;5037891;28;20056;-79
2022/02/06 10:37:35;;;;;;;5.70;1.67;;;;;;;;;;5038420;28;19921;-79
2022/02/06 10:40:06;;;;;;;5.88;1.50;;;;;;;;;;5039493;28;20045;-79
2022/02/06 10:42:36;;;;;;;10.88;2.47;;;;;;;;;;5040899;28;20129;-83
2022/02/06 10:45:14;;;;;;;5.07;2.30;;;;;;;;;;5053670;28;20057;-77
2022/02/06 10:47:43;;;;;;;8.10;1.77;;;;;;;;;;5052927;28;20049;-82
2022/02/06 10:50:12;;;;;;;4.00;1.60;;;;;;;;;;5042535;28;20049;-82
2022/02/06 10:52:40;;;;;;;5.00;1.70;;;;;;;;;;5037902;28;20128;-79
2022/02/06 10:55:08;;;;;;;5.63;1.50;;;;;;;;;;5037704;28;20053;-81
2022/02/06 10:57:39;;;;;;;7.25;1.75;;;;;;;;;;5038336;28;20052;-80
2022/02/06 11:00:10;;;;;;;6.95;2.75;;;;;;;;;;5032578;28;20049;-81
2022/02/06 11:02:45;;;;;;;5.78;1.52;;;;;;;;;;5018687;28;20054;-78
2022/02/06 11:05:21;;;;;;;4.93;2.20;;;;;;;;;;5017672;28;20074;-78
2022/02/06 11:07:58;;;;;;;5.40;1.73;;;;;;;;;;5014305;28;20053;-80
2022/02/06 11:10:28;;;;;;;6.25;1.65;;;;;;;;;;5017785;28;20416;-79
2022/02/06 11:12:56;;;;;;;6.07;1.73;;;;;;;;;;5016293;28;20112;-80
2022/02/06 11:15:25;;;;;;;6.15;1.90;;;;;;;;;;5017040;28;20065;-79
2022/02/06 11:18:10;;;;;;;6.93;1.60;;;;;;;;;;5033651;28;20508;-80
2022/02/06 11:20:38;;;;;;;6.07;2.10;;;;;;;;;;5014110;28;20104;-78
2022/02/06 11:23:05;;;;;;;6.38;1.95;;;;;;;;;;5013071;28;20045;-77
2022/02/06 11:25:33;;;;;;;7.15;1.70;;;;;;;;;;5014771;28;20058;-79
2022/02/06 11:28:02;;;;;;;4.93;1.77;;;;;;;;;;5014784;28;20100;-80
2022/02/06 11:30:29;;;;;;;7.55;1.52;;;;;;;;;;5014067;28;20136;-79
2022/02/06 11:32:59;;;;;;;5.15;1.58;;;;;;;;;;5015508;28;20102;-79
2022/02/06 11:35:29;;;;;;;6.50;1.87;;;;;;;;;;5019156;28;20056;-78
2022/02/06 11:44:26;;;;;;;4.70;1.55;;;;;;;;;;4993736;28;20082;-78
2022/02/06 11:47:02;;;;;;;3.45;1.40;;;;;;;;;;5034858;28;20129;-79
2022/02/06 11:49:29;;;;;;;4.80;1.70;;;;;;;;;;5035523;28;20527;-78
2022/02/06 11:51:57;;;;;;;6.38;1.50;;;;;;;;;;5036476;28;20420;-79
2022/02/06 11:54:31;;;;;;;3.72;1.52;;;;;;;;;;5036570;28;20053;-78
2022/02/06 11:57:22;;;;;;;4.30;1.50;;;;;;;;;;5033519;28;20049;-79
2022/02/06 12:00:20;;;;;;;6.15;1.63;;;;;;;;;;5035535;28;20041;-80
2022/02/06 12:02:51;;;;;;;6.45;1.60;;;;;;;;;;4955289;29;20051;-79
2022/02/06 12:05:23;;;;;;;;;;;;;;;;;;5020809;28;20049;-78
2022/02/06 12:08:03;;;;;;;6.78;1.48;;;;;;;;;;5037186;28;20012;-79
2022/02/06 12:11:16;;;;;;;3.83;1.30;;;;;;;;;;5034366;28;20095;-79
2022/02/06 12:13:45;;;;;;;4.53;1.50;;;;;;;;;;5037718;28;20046;-80
2022/02/06 12:16:26;;;;;;;5.22;1.48;;;;;;;;;;5036266;28;20046;-80
2022/02/06 12:18:56;;;;;;;4.90;1.50;;;;;;;;;;5034177;28;20475;-78
2022/02/06 12:21:24;;;;;;;6.07;1.80;;;;;;;;;;5037302;28;20405;-80
2022/02/06 12:23:55;;;;;;;4.25;2.58;;;;;;;;;;5036808;28;20038;-78
2022/02/06 12:26:40;;;;;;;5.88;1.55;;;;;;;;;;5038690;28;20109;-78
2022/02/06 12:29:12;;;;;;;4.40;1.38;;;;;;;;;;5093240;22;20049;-63
2022/02/06 12:31:48;;;;;;;4.32;1.65;;;;;;;;;;5053523;28;20049;-64
2022/02/06 12:37:32;;;;;;;4.70;1.80;;;;;;;;;;5053276;28;20151;-63
2022/02/06 12:40:01;;;;;;;5.80;1.98;;;;;;;;;;5053341;28;20052;-64
2022/02/06 12:42:31;;;;;;;4.88;1.42;;;;;;;;;;5053279;28;20144;-63
2022/02/06 12:45:01;;;;;;;2.45;1.10;;;;;;;;;;5054138;28;20057;-64
2022/02/06 12:47:29;;;;;;;6.15;2.03;;;;;;;;;;5053164;28;20516;-62
2022/02/06 12:49:57;;;;;;;4.72;1.02;;;;;;;;;;5052789;28;20048;-62
2022/02/06 12:52:24;;;;;;;4.78;1.63;;;;;;;;;;5053119;28;20075;-63
2022/02/06 12:54:51;;;;;;;3.35;1.10;;;;;;;;;;5052782;28;20132;-63
2022/02/06 12:57:20;;;;;;;2.90;1.10;;;;;;;;;;5052251;28;20049;-63
2022/02/06 12:59:49;;;;;;;5.63;1.40;;;;;;;;;;5052541;28;20094;-63
2022/02/06 13:02:34;;;;;;;4.30;1.30;;;;;;;;;;5052557;28;20098;-62
2022/02/06 13:05:05;;;;;;;3.30;1.00;;;;;;;;;;5052484;28;20049;-62
2022/02/06 13:07:41;;;;;;;5.30;1.42;;;;;;;;;;5052348;28;20056;-62
2022/02/06 13:10:09;;;;;;;4.57;1.70;;;;;;;;;;5052882;28;20140;-62
2022/02/06 13:12:42;;;;;;;3.40;1.10;;;;;;;;;;5052426;28;20045;-62
2022/02/06 13:21:00;;;;;;;3.85;1.35;;;;;;;;;;5044945;28;20057;-62
2022/02/06 13:23:43;;;;;;;4.10;1.38;;;;;;;;;;5052013;28;20500;-62
2022/02/06 13:26:18;;;;;;;2.17;1.20;;;;;;;;;;5052347;28;20144;-62
2022/02/06 13:28:55;;;;;;;3.53;1.42;;;;;;;;;;5052506;28;20045;-63
2022/02/06 13:31:46;;;;;;;2.85;1.05;;;;;;;;;;5052580;28;20075;-62
2022/02/06 13:34:24;;;;;;;2.65;1.17;;;;;;;;;;5052578;28;20095;-62
2022/02/06 13:36:55;;;;;;;3.88;1.73;;;;;;;;;;5051825;28;20053;-62
2022/02/06 13:39:36;;;;;;;4.38;1.40;;;;;;;;;;5051971;28;20049;-62
2022/02/06 13:42:14;;;;;;;3.85;1.73;;;;;;;;;;5052375;28;20053;-62
2022/02/06 13:44:41;;;;;;;3.03;1.00;;;;;;;;;;5051994;28;20052;-62
2022/02/06 13:47:10;;;;;;;4.95;1.63;;;;;;;;;;5052050;28;20045;-62
2022/02/06 13:49:43;;;;;;;3.42;1.20;;;;;;;;;;5051901;28;20045;-62
2022/02/06 13:52:13;;;;;;;3.88;1.27;;;;;;;;;;5051776;28;20060;-63
2022/02/06 13:54:43;;;;;;;4.18;1.40;;;;;;;;;;5051784;28;20045;-63
2022/02/06 13:57:10;;;;;;;3.45;1.10;;;;;;;;;;5052118;28;20139;-63
2022/02/06 13:59:38;;;;;;;2.78;1.00;;;;;;;;;;5051949;28;20061;-63
2022/02/06 14:02:08;;;;;;;5.22;1.25;;;;;;;;;;5051738;28;20512;-62
2022/02/06 14:04:37;;;;;;;5.65;1.45;;;;;;;;;;5051986;28;20049;-63
2022/02/06 14:07:09;;;;;;;3.33;1.58;;;;;;;;;;5051953;28;20580;-63
2022/02/06 14:09:48;;;;;;;6.13;1.30;;;;;;;;;;5051701;28;20053;-63
2022/02/06 14:12:17;;;;;;;3.20;1.58;;;;;;;;;;5051515;28;20045;-63
2022/02/06 14:14:51;;;;;;;3.90;1.40;;;;;;;;;;5051563;28;20417;-63
2022/02/06 14:17:19;;;;;;;2.25;1.17;;;;;;;;;;5050952;28;20123;-63
2022/02/06 14:19:48;;;;;;;6.47;1.33;;;;;;;;;;5051754;28;20589;-63
2022/02/06 14:22:28;;;;;;;6.05;1.30;;;;;;;;;;5051119;28;20049;-62
2022/02/06 14:24:56;;;;;;;6.47;1.30;;;;;;;;;;5051665;28;20178;-64
2022/02/06 14:27:37;;;;;;;4.78;1.38;;;;;;;;;;5051732;28;20476;-64
2022/02/06 14:30:13;;;;;;;3.72;1.38;;;;;;;;;;5051719;28;20048;-64
2022/02/06 14:33:01;;;;;;;5.60;1.25;;;;;;;;;;5051395;28;20513;-63
2022/02/06 14:35:39;;;;;;;4.55;1.10;;;;;;;;;;5051069;28;20045;-63
2022/02/06 14:38:11;;;;;;;4.45;1.23;;;;;;;;;;5050695;28;20136;-63
2022/02/06 14:40:49;;;;;;;4.63;1.75;;;;;;;;;;5052025;28;20087;-64
2022/02/06 14:43:16;;;;;;;4.60;1.52;;;;;;;;;;5050553;28;20041;-63
2022/02/06 14:45:48;;;;;;;4.68;1.63;;;;;;;;;;5051299;28;20049;-64
2022/02/06 14:48:15;;;;;;;5.45;1.67;;;;;;;;;;5050918;28;20057;-64
2022/02/06 14:50:46;;;;;;;9.15;1.75;;;;;;;;;;5051248;28;20135;-64
2022/02/06 14:53:15;;;;;;;3.95;1.13;;;;;;;;;;5051060;28;20057;-67
2022/02/06 14:55:43;;;;;;;4.93;1.20;;;;;;;;;;5050663;28;20112;-64
2022/02/06 14:58:10;;;;;;;2.83;0.93;;;;;;;;;;5050389;28;20049;-62
2022/02/06 15:00:38;;;;;;;4.38;1.40;;;;;;;;;;5050560;28;20045;-64
2022/02/06 15:03:06;;;;;;;2.40;1.10;;;;;;;;;;5050312;28;20045;-65
2022/02/06 15:05:33;;;;;;;6.30;1.55;;;;;;;;;;5050662;28;20055;-64
2022/02/06 15:08:00;;;;;;;4.28;1.30;;;;;;;;;;5050540;28;20425;-64
2022/02/06 15:10:30;;;;;;;2.97;1.27;;;;;;;;;;5050444;28;20049;-64
2022/02/06 15:12:58;;;;;;;4.05;1.50;;;;;;;;;;5050722;28;20071;-64
2022/02/06 15:15:31;;;;;;;3.85;1.30;;;;;;;;;;5050127;28;20049;-63
2022/02/06 15:18:08;;;;;;;3.47;1.30;;;;;;;;;;5050556;28;20080;-63
2022/02/06 15:20:35;;;;;;;2.42;1.23;;;;;;;;;;5050975;28;20498;-64
2022/02/06 15:23:06;;;;;;;5.03;1.75;;;;;;;;;;5050105;28;20051;-63
2022/02/06 15:25:35;;;;;;;4.95;1.40;;;;;;;;;;5050041;28;20049;-63
2022/02/06 15:28:02;;;;;;;3.00;1.30;;;;;;;;;;5050216;28;20063;-65
2022/02/06 15:30:29;;;;;;;3.67;1.33;;;;;;;;;;5050187;28;20110;-64
2022/02/06 15:32:56;;;;;;;2.22;0.90;;;;;;;;;;5049975;28;20045;-63
2022/02/06 15:35:23;;;;;;;3.13;1.10;;;;;;;;;;5050529;28;20516;-63
2022/02/06 15:37:50;;;;;;;5.68;1.33;;;;;;;;;;5050030;28;20045;-64
2022/02/06 15:40:18;;;;;;;3.25;1.20;;;;;;;;;;5050031;28;20052;-63
2022/02/06 15:42:46;;;;;;;3.10;0.90;;;;;;;;;;5050573;28;20555;-62
2022/02/06 15:45:13;;;;;;;3.33;0.98;;;;;;;;;;5050265;28;20460;-64
2022/02/06 15:47:40;;;;;;;2.25;0.80;;;;;;;;;;5050054;28;20045;-63
2022/02/06 15:50:10;;;;;;;3.70;1.23;;;;;;;;;;5050400;28;20505;-65
2022/02/06 15:52:37;;;;;;;5.40;1.00;;;;;;;;;;5050818;28;20052;-64
2022/02/06 15:55:05;;;;;;;2.22;0.98;;;;;;;;;;5054137;28;20136;-65
2022/02/06 15:57:32;;;;;;;2.95;0.82;;;;;;;;;;5054065;28;20053;-63
2022/02/06 16:00:00;;;;;;;3.33;1.10;;;;;;;;;;5053995;28;20045;-64
2022/02/06 16:02:27;;;;;;;3.97;1.10;;;;;;;;;;5054077;28;20045;-63
2022/02/06 16:04:54;;;;;;;3.72;1.00;;;;;;;;;;5053940;28;20045;-63
2022/02/06 16:07:21;;;;;;;3.60;1.02;;;;;;;;;;5053819;28;20055;-65
2022/02/06 16:09:48;;;;;;;3.22;0.82;;;;;;;;;;5054260;28;20517;-63
2022/02/06 16:12:15;;;;;;;2.20;1.05;;;;;;;;;;5054077;28;20490;-64
2022/02/06 16:14:42;;;;;;;3.83;1.20;;;;;;;;;;5054177;28;20044;-63
2022/02/06 16:17:12;;;;;;;2.58;1.30;;;;;;;;;;5053905;28;20045;-63
2022/02/06 16:19:40;;;;;;;3.10;1.13;;;;;;;;;;5053895;28;20146;-64
2022/02/06 16:22:07;;;;;;;3.45;1.00;;;;;;;;;;5053552;28;20052;-64
2022/02/06 16:24:35;;;;;;;2.55;1.00;;;;;;;;;;5053630;28;20041;-63
2022/02/06 16:27:03;;;;;;;3.55;1.20;;;;;;;;;;5053675;28;20053;-64
2022/02/06 16:29:30;;;;;;;1.52;0.88;;;;;;;;;;5053405;28;20056;-63
2022/02/06 16:31:57;;;;;;;4.28;1.58;;;;;;;;;;5053589;28;20071;-63
2022/02/06 16:34:26;;;;;;;3.08;1.10;;;;;;;;;;5053422;28;20041;-63
2022/02/06 16:36:53;;;;;;;2.28;0.90;;;;;;;;;;5053422;28;20048;-63
2022/02/06 16:39:23;;;;;;;1.73;1.00;;;;;;;;;;5053731;28;20063;-66
2022/02/06 16:41:50;;;;;;;2.00;1.02;;;;;;;;;;5053880;28;20049;-63
2022/02/06 16:44:17;;;;;;;1.70;0.82;;;;;;;;;;5053191;28;20383;-63
2022/02/06 16:46:44;;;;;;;2.85;0.90;;;;;;;;;;5053134;28;20056;-64
2022/02/06 16:49:11;;;;;;;2.88;1.15;;;;;;;;;;5053038;28;20518;-64
2022/02/06 16:51:40;;;;;;;4.05;1.13;;;;;;;;;;5053253;28;20504;-65
2022/02/06 16:54:07;;;;;;;5.32;1.40;;;;;;;;;;5053590;28;20408;-64